sensor_id;sensor_type;location;lat;lon;timestamp;pressure;altitude;pressure_sealevel;temperature;humidity
84049;BME280;74136;51.684;7.862;2024-03-25T00:01:41;99890.31;;;4.41;96.18
84049;BME280;74136;51.684;7.862;2024-03-25T00:04:07;99895.13;;;4.39;95.72
84049;BME280;74136;51.684;7.862;2024-03-25T00:06:33;99897.63;;;4.41;96.08
84049;BME280;74136;51.684;7.862;2024-03-25T00:09:00;99899.72;;;4.38;96.18
84049;BME280;74136;51.684;7.862;2024-03-25T00:11:26;99896.38;;;4.36;96.11
84049;BME280;74136;51.684;7.862;2024-03-25T00:13:53;99896.38;;;4.36;96.81
84049;BME280;74136;51.684;7.862;2024-03-25T00:16:19;99898.25;;;4.36;96.36
84049;BME280;74136;51.684;7.862;2024-03-25T00:18:46;99893.88;;;4.35;96.33
84049;BME280;74136;51.684;7.862;2024-03-25T00:21:12;99887.56;;;4.34;96.34
84049;BME280;74136;51.684;7.862;2024-03-25T00:23:38;99898.28;;;4.29;96.04
84049;BME280;74136;51.684;7.862;2024-03-25T00:26:04;99906.88;;;4.26;96.46
84049;BME280;74136;51.684;7.862;2024-03-25T00:28:30;99908.97;;;4.24;97.47
84049;BME280;74136;51.684;7.862;2024-03-25T00:30:57;99902.69;;;4.24;97.14
84049;BME280;74136;51.684;7.862;2024-03-25T00:33:23;99908.75;;;4.26;97.30
84049;BME280;74136;51.684;7.862;2024-03-25T00:35:50;99897.66;;;4.27;97.56
84049;BME280;74136;51.684;7.862;2024-03-25T00:38:16;99908.16;;;4.30;97.81
84049;BME280;74136;51.684;7.862;2024-03-25T00:40:42;99911.25;;;4.34;97.74
84049;BME280;74136;51.684;7.862;2024-03-25T00:43:09;99909.16;;;4.36;97.75
84049;BME280;74136;51.684;7.862;2024-03-25T00:45:36;99905.59;;;4.35;97.66
84049;BME280;74136;51.684;7.862;2024-03-25T00:48:05;99905.59;;;4.35;97.71
84049;BME280;74136;51.684;7.862;2024-03-25T00:50:32;99910.84;;;4.37;97.15
84049;BME280;74136;51.684;7.862;2024-03-25T00:52:58;99910.00;;;4.36;97.41
84049;BME280;74136;51.684;7.862;2024-03-25T00:55:24;99908.75;;;4.39;97.75
84049;BME280;74136;51.684;7.862;2024-03-25T00:57:51;99912.31;;;4.39;98.01
84049;BME280;74136;51.684;7.862;2024-03-25T01:00:17;99906.84;;;4.39;96.98
84049;BME280;74136;51.684;7.862;2024-03-25T01:02:43;99914.81;;;4.41;97.38
84049;BME280;74136;51.684;7.862;2024-03-25T01:05:10;99906.84;;;4.39;96.61
84049;BME280;74136;51.684;7.862;2024-03-25T01:07:36;99903.09;;;4.41;96.43
84049;BME280;74136;51.684;7.862;2024-03-25T01:10:02;99899.53;;;4.40;96.20
84049;BME280;74136;51.684;7.862;2024-03-25T01:12:28;99904.13;;;4.39;97.06
84049;BME280;74136;51.684;7.862;2024-03-25T01:14:55;99908.75;;;4.39;96.74
84049;BME280;74136;51.684;7.862;2024-03-25T01:17:21;99910.63;;;4.38;96.48
84049;BME280;74136;51.684;7.862;2024-03-25T01:19:47;99915.03;;;4.39;96.90
84049;BME280;74136;51.684;7.862;2024-03-25T01:22:13;99908.53;;;4.41;96.99
84049;BME280;74136;51.684;7.862;2024-03-25T01:24:40;99909.59;;;4.39;96.82
84049;BME280;74136;51.684;7.862;2024-03-25T01:27:06;99910.63;;;4.38;97.25
84049;BME280;74136;51.684;7.862;2024-03-25T01:29:32;99914.41;;;4.37;97.04
84049;BME280;74136;51.684;7.862;2024-03-25T01:31:58;99910.00;;;4.36;97.13
84049;BME280;74136;51.684;7.862;2024-03-25T01:34:25;99912.09;;;4.34;97.59
84049;BME280;74136;51.684;7.862;2024-03-25T01:36:52;99914.19;;;4.32;97.24
84049;BME280;74136;51.684;7.862;2024-03-25T01:39:21;99906.22;;;4.31;96.91
84049;BME280;74136;51.684;7.862;2024-03-25T01:41:47;99908.75;;;4.26;96.79
84049;BME280;74136;51.684;7.862;2024-03-25T01:44:13;99911.91;;;4.23;97.19
84049;BME280;74136;51.684;7.862;2024-03-25T01:46:40;99918.63;;;4.14;97.56
84049;BME280;74136;51.684;7.862;2024-03-25T01:49:06;99912.75;;;4.10;96.66
84049;BME280;74136;51.684;7.862;2024-03-25T01:51:33;99905.66;;;4.02;96.69
84049;BME280;74136;51.684;7.862;2024-03-25T01:54:00;99923.88;;;4.02;97.61
84049;BME280;74136;51.684;7.862;2024-03-25T01:56:31;99927.84;;;3.99;97.06
84049;BME280;74136;51.684;7.862;2024-03-25T01:58:59;99919.47;;;4.01;97.18
84049;BME280;74136;51.684;7.862;2024-03-25T02:01:27;99920.31;;;4.01;96.82
84049;BME280;74136;51.684;7.862;2024-03-25T02:03:54;99928.28;;;4.03;97.38
84049;BME280;74136;51.684;7.862;2024-03-25T02:06:22;99924.91;;;4.01;97.91
84049;BME280;74136;51.684;7.862;2024-03-25T02:08:50;99940.22;;;4.02;97.73
84049;BME280;74136;51.684;7.862;2024-03-25T02:11:17;99934.75;;;4.02;97.40
84049;BME280;74136;51.684;7.862;2024-03-25T02:13:43;99936.00;;;3.99;98.05
84049;BME280;74136;51.684;7.862;2024-03-25T02:16:10;99940.84;;;3.97;97.92
84049;BME280;74136;51.684;7.862;2024-03-25T02:18:36;99933.72;;;3.90;97.35
84049;BME280;74136;51.684;7.862;2024-03-25T02:21:03;99938.13;;;3.84;97.22
84049;BME280;74136;51.684;7.862;2024-03-25T02:23:29;99940.81;;;3.78;98.07
84049;BME280;74136;51.684;7.862;2024-03-25T02:25:55;99937.72;;;3.74;98.27
84049;BME280;74136;51.684;7.862;2024-03-25T02:28:21;99939.16;;;3.70;98.37
84049;BME280;74136;51.684;7.862;2024-03-25T02:30:48;99944.16;;;3.66;98.26
84049;BME280;74136;51.684;7.862;2024-03-25T02:33:14;99941.44;;;3.60;98.41
84049;BME280;74136;51.684;7.862;2024-03-25T02:35:41;99942.69;;;3.57;98.84
84049;BME280;74136;51.684;7.862;2024-03-25T02:38:09;99930.97;;;3.57;99.38
84049;BME280;74136;51.684;7.862;2024-03-25T02:40:37;99938.28;;;3.56;98.80
84049;BME280;74136;51.684;7.862;2024-03-25T02:43:04;99941.03;;;3.50;99.07
84049;BME280;74136;51.684;7.862;2024-03-25T02:45:30;99936.81;;;3.47;98.93
84049;BME280;74136;51.684;7.862;2024-03-25T02:47:56;99934.94;;;3.48;98.77
84049;BME280;74136;51.684;7.862;2024-03-25T02:50:22;99933.06;;;3.48;98.64
84049;BME280;74136;51.684;7.862;2024-03-25T02:52:48;99944.97;;;3.54;99.21
84049;BME280;74136;51.684;7.862;2024-03-25T02:55:15;99939.34;;;3.55;98.72
84049;BME280;74136;51.684;7.862;2024-03-25T02:57:41;99946.06;;;3.59;99.05
84049;BME280;74136;51.684;7.862;2024-03-25T03:00:07;99940.41;;;3.61;98.67
84049;BME280;74136;51.684;7.862;2024-03-25T03:02:35;99938.31;;;3.63;99.10
84049;BME280;74136;51.684;7.862;2024-03-25T03:05:01;99945.22;;;3.65;98.90
84049;BME280;74136;51.684;7.862;2024-03-25T03:07:29;99950.25;;;3.69;98.40
84049;BME280;74136;51.684;7.862;2024-03-25T03:09:56;99950.03;;;3.70;97.73
84049;BME280;74136;51.684;7.862;2024-03-25T03:12:22;99954.44;;;3.71;98.33
84049;BME280;74136;51.684;7.862;2024-03-25T03:14:48;99959.88;;;3.71;97.40
84049;BME280;74136;51.684;7.862;2024-03-25T03:17:14;99959.69;;;3.73;98.26
84049;BME280;74136;51.684;7.862;2024-03-25T03:19:40;99953.19;;;3.74;96.88
84049;BME280;74136;51.684;7.862;2024-03-25T03:22:07;99953.19;;;3.74;97.14
84049;BME280;74136;51.684;7.862;2024-03-25T03:24:33;99945.44;;;3.77;96.80
84049;BME280;74136;51.684;7.862;2024-03-25T03:26:59;99946.72;;;3.75;96.52
84049;BME280;74136;51.684;7.862;2024-03-25T03:29:25;99965.13;;;3.73;96.96
84049;BME280;74136;51.684;7.862;2024-03-25T03:31:51;99960.50;;;3.66;96.60
84049;BME280;74136;51.684;7.862;2024-03-25T03:34:18;99952.53;;;3.65;96.82
84049;BME280;74136;51.684;7.862;2024-03-25T03:36:44;99962.38;;;3.66;96.37
84049;BME280;74136;51.684;7.862;2024-03-25T03:39:10;99952.53;;;3.65;96.31
84049;BME280;74136;51.684;7.862;2024-03-25T03:41:36;99955.69;;;3.69;96.30
84049;BME280;74136;51.684;7.862;2024-03-25T03:44:02;99961.13;;;3.69;96.27
84049;BME280;74136;51.684;7.862;2024-03-25T03:46:29;99949.41;;;3.68;95.81
84049;BME280;74136;51.684;7.862;2024-03-25T03:48:55;99954.66;;;3.70;95.80
84049;BME280;74136;51.684;7.862;2024-03-25T03:51:22;99954.66;;;3.70;95.91
84049;BME280;74136;51.684;7.862;2024-03-25T03:53:48;99950.88;;;3.71;95.64
84049;BME280;74136;51.684;7.862;2024-03-25T03:56:14;99947.13;;;3.72;94.88
84049;BME280;74136;51.684;7.862;2024-03-25T03:58:40;99946.06;;;3.73;94.08
84049;BME280;74136;51.684;7.862;2024-03-25T04:01:17;99947.56;;;3.75;94.91
84049;BME280;74136;51.684;7.862;2024-03-25T04:03:44;99960.53;;;3.73;95.42
84049;BME280;74136;51.684;7.862;2024-03-25T04:06:11;99964.06;;;3.74;94.99
84049;BME280;74136;51.684;7.862;2024-03-25T04:08:39;99966.16;;;3.72;95.45
84049;BME280;74136;51.684;7.862;2024-03-25T04:11:06;99967.22;;;3.71;96.24
84049;BME280;74136;51.684;7.862;2024-03-25T04:13:33;99969.28;;;3.69;96.53
84049;BME280;74136;51.684;7.862;2024-03-25T04:16:02;99966.78;;;3.67;95.75
84049;BME280;74136;51.684;7.862;2024-03-25T04:18:33;99965.09;;;3.66;96.96
84049;BME280;74136;51.684;7.862;2024-03-25T04:20:59;99967.41;;;3.69;96.87
84049;BME280;74136;51.684;7.862;2024-03-25T04:23:26;99960.94;;;3.70;96.56
84049;BME280;74136;51.684;7.862;2024-03-25T04:25:52;99962.59;;;3.71;96.74
84049;BME280;74136;51.684;7.862;2024-03-25T04:28:19;99967.00;;;3.72;96.58
84049;BME280;74136;51.684;7.862;2024-03-25T04:30:54;99970.56;;;3.73;96.90
84049;BME280;74136;51.684;7.862;2024-03-25T04:33:21;99972.25;;;3.74;96.08
84049;BME280;74136;51.684;7.862;2024-03-25T04:35:47;99968.69;;;3.73;96.88
84049;BME280;74136;51.684;7.862;2024-03-25T04:38:16;99974.97;;;3.74;96.80
84049;BME280;74136;51.684;7.862;2024-03-25T04:40:42;99981.00;;;3.76;98.00
84049;BME280;74136;51.684;7.862;2024-03-25T04:43:10;99980.81;;;3.77;97.91
84049;BME280;74136;51.684;7.862;2024-03-25T04:45:36;99975.56;;;3.76;97.71
84049;BME280;74136;51.684;7.862;2024-03-25T04:48:02;99973.69;;;3.76;98.30
84049;BME280;74136;51.684;7.862;2024-03-25T04:50:30;99980.19;;;3.75;97.83
84049;BME280;74136;51.684;7.862;2024-03-25T04:52:56;99983.72;;;3.76;98.93
84049;BME280;74136;51.684;7.862;2024-03-25T04:55:22;99979.97;;;3.77;98.52
84049;BME280;74136;51.684;7.862;2024-03-25T04:57:49;99982.28;;;3.80;99.62
84049;BME280;74136;51.684;7.862;2024-03-25T05:02:43;99992.75;;;3.83;98.69
84049;BME280;74136;51.684;7.862;2024-03-25T05:05:09;99990.69;;;3.85;98.48
84049;BME280;74136;51.684;7.862;2024-03-25T05:07:36;99987.13;;;3.84;98.69
84049;BME280;74136;51.684;7.862;2024-03-25T05:10:02;99984.41;;;3.84;98.68
84049;BME280;74136;51.684;7.862;2024-03-25T05:12:28;99980.41;;;3.87;98.29
84049;BME280;74136;51.684;7.862;2024-03-25T05:14:56;99992.34;;;3.86;98.55
84049;BME280;74136;51.684;7.862;2024-03-25T05:17:22;99991.50;;;3.85;98.34
84049;BME280;74136;51.684;7.862;2024-03-25T05:19:49;100000.09;;;3.82;98.74
84049;BME280;74136;51.684;7.862;2024-03-25T05:22:17;100002.81;;;3.82;98.64
84049;BME280;74136;51.684;7.862;2024-03-25T05:24:43;100011.59;;;3.84;98.93
84049;BME280;74136;51.684;7.862;2024-03-25T05:27:09;100012.66;;;3.83;98.49
84049;BME280;74136;51.684;7.862;2024-03-25T05:29:35;100008.88;;;3.84;98.74
84049;BME280;74136;51.684;7.862;2024-03-25T05:32:02;100009.09;;;3.83;98.27
84049;BME280;74136;51.684;7.862;2024-03-25T05:34:28;100017.25;;;3.83;98.35
84049;BME280;74136;51.684;7.862;2024-03-25T05:36:55;100008.44;;;3.81;98.49
84049;BME280;74136;51.684;7.862;2024-03-25T05:39:21;100012.84;;;3.82;97.94
84049;BME280;74136;51.684;7.862;2024-03-25T05:41:47;100007.63;;;3.80;98.62
84049;BME280;74136;51.684;7.862;2024-03-25T05:44:14;100021.22;;;3.80;98.39
84049;BME280;74136;51.684;7.862;2024-03-25T05:46:40;100017.03;;;3.78;98.57
84049;BME280;74136;51.684;7.862;2024-03-25T05:49:07;100015.34;;;3.77;98.08
84049;BME280;74136;51.684;7.862;2024-03-25T05:51:33;100013.66;;;3.76;97.88
84049;BME280;74136;51.684;7.862;2024-03-25T05:54:00;100027.28;;;3.76;98.03
84049;BME280;74136;51.684;7.862;2024-03-25T05:56:26;100028.13;;;3.76;98.10
84049;BME280;74136;51.684;7.862;2024-03-25T05:58:57;100027.91;;;3.78;98.65
84049;BME280;74136;51.684;7.862;2024-03-25T06:01:23;100017.88;;;3.78;97.86
84049;BME280;74136;51.684;7.862;2024-03-25T06:03:49;100025.63;;;3.81;98.44
84049;BME280;74136;51.684;7.862;2024-03-25T06:06:15;100030.63;;;3.78;97.72
84049;BME280;74136;51.684;7.862;2024-03-25T06:08:42;100026.88;;;3.79;98.14
84049;BME280;74136;51.684;7.862;2024-03-25T06:11:09;100030.03;;;3.82;98.13
84049;BME280;74136;51.684;7.862;2024-03-25T06:13:35;100033.59;;;3.83;97.56
84049;BME280;74136;51.684;7.862;2024-03-25T06:16:01;100034.22;;;3.85;97.94
84049;BME280;74136;51.684;7.862;2024-03-25T06:18:27;100032.94;;;3.81;97.26
84049;BME280;74136;51.684;7.862;2024-03-25T06:20:54;100038.81;;;3.84;98.05
84049;BME280;74136;51.684;7.862;2024-03-25T06:23:27;100043.00;;;3.87;97.97
84049;BME280;74136;51.684;7.862;2024-03-25T06:25:55;100047.41;;;3.88;97.41
84049;BME280;74136;51.684;7.862;2024-03-25T06:28:21;100042.19;;;3.86;97.90
84049;BME280;74136;51.684;7.862;2024-03-25T06:30:49;100044.28;;;3.91;97.53
84049;BME280;74136;51.684;7.862;2024-03-25T06:33:34;100054.34;;;3.97;97.49
84049;BME280;74136;51.684;7.862;2024-03-25T06:36:19;100043.47;;;3.97;97.06
84049;BME280;74136;51.684;7.862;2024-03-25T06:38:46;100040.09;;;4.01;96.63
84049;BME280;74136;51.684;7.862;2024-03-25T06:41:12;100044.50;;;4.09;97.00
84049;BME280;74136;51.684;7.862;2024-03-25T06:43:39;100039.91;;;4.16;97.06
84049;BME280;74136;51.684;7.862;2024-03-25T06:46:06;100049.31;;;4.14;96.05
84049;BME280;74136;51.684;7.862;2024-03-25T06:48:35;100038.25;;;4.09;96.19
84049;BME280;74136;51.684;7.862;2024-03-25T06:51:02;100043.03;;;4.13;96.36
84049;BME280;74136;51.684;7.862;2024-03-25T06:53:29;100047.66;;;4.19;95.93
84049;BME280;74136;51.684;7.862;2024-03-25T06:55:58;100046.41;;;4.28;95.90
84049;BME280;74136;51.684;7.862;2024-03-25T06:58:26;100042.22;;;4.26;94.83
84049;BME280;74136;51.684;7.862;2024-03-25T07:00:53;100043.03;;;4.33;94.80
84049;BME280;74136;51.684;7.862;2024-03-25T07:03:21;100046.00;;;4.38;93.88
84049;BME280;74136;51.684;7.862;2024-03-25T07:05:49;100044.09;;;4.45;93.98
84049;BME280;74136;51.684;7.862;2024-03-25T07:08:18;100039.88;;;4.56;93.50
84049;BME280;74136;51.684;7.862;2024-03-25T07:10:47;100046.59;;;4.66;92.70
84049;BME280;74136;51.684;7.862;2024-03-25T07:13:14;100051.22;;;4.72;91.35
84049;BME280;74136;51.684;7.862;2024-03-25T07:15:40;100049.09;;;4.81;91.33
84049;BME280;74136;51.684;7.862;2024-03-25T07:18:06;100048.25;;;4.81;91.03
84049;BME280;74136;51.684;7.862;2024-03-25T07:20:32;100033.09;;;4.98;92.18
84049;BME280;74136;51.684;7.862;2024-03-25T07:22:59;100047.16;;;5.01;91.47
84049;BME280;74136;51.684;7.862;2024-03-25T07:25:25;100049.47;;;5.04;91.58
84049;BME280;74136;51.684;7.862;2024-03-25T07:27:52;100052.75;;;5.26;92.05
84049;BME280;74136;51.684;7.862;2024-03-25T07:30:19;100053.97;;;5.30;91.46
84049;BME280;74136;51.684;7.862;2024-03-25T07:32:45;100052.50;;;5.34;91.45
84049;BME280;74136;51.684;7.862;2024-03-25T07:35:11;100053.91;;;5.43;91.49
84049;BME280;74136;51.684;7.862;2024-03-25T07:37:37;100047.19;;;5.46;90.82
84049;BME280;74136;51.684;7.862;2024-03-25T07:40:05;100050.31;;;5.56;91.99
84049;BME280;74136;51.684;7.862;2024-03-25T07:42:31;100049.66;;;5.61;91.67
84049;BME280;74136;51.684;7.862;2024-03-25T07:44:57;100066.00;;;5.67;90.61
84049;BME280;74136;51.684;7.862;2024-03-25T07:47:24;100057.19;;;5.65;90.29
84049;BME280;74136;51.684;7.862;2024-03-25T07:49:50;100065.97;;;5.74;89.56
84049;BME280;74136;51.684;7.862;2024-03-25T07:52:16;100058.22;;;5.71;89.75
84049;BME280;74136;51.684;7.862;2024-03-25T07:54:42;100061.13;;;5.76;90.07
84049;BME280;74136;51.684;7.862;2024-03-25T07:57:09;100065.03;;;5.86;89.92
84049;BME280;74136;51.684;7.862;2024-03-25T07:59:35;100068.00;;;5.92;89.10
84049;BME280;74136;51.684;7.862;2024-03-25T08:02:01;100063.94;;;6.01;90.07
84049;BME280;74136;51.684;7.862;2024-03-25T08:04:28;100062.47;;;6.05;88.55
84049;BME280;74136;51.684;7.862;2024-03-25T08:06:56;100059.69;;;6.11;88.76
84049;BME280;74136;51.684;7.862;2024-03-25T08:09:22;100064.88;;;6.19;88.49
84049;BME280;74136;51.684;7.862;2024-03-25T08:11:48;100062.72;;;6.28;87.62
84049;BME280;74136;51.684;7.862;2024-03-25T08:14:15;100070.63;;;6.36;87.49
84049;BME280;74136;51.684;7.862;2024-03-25T08:16:41;100063.41;;;6.48;88.42
84049;BME280;74136;51.684;7.862;2024-03-25T08:19:07;100063.72;;;6.58;87.11
84049;BME280;74136;51.684;7.862;2024-03-25T08:21:34;100067.78;;;6.74;86.51
84049;BME280;74136;51.684;7.862;2024-03-25T08:24:00;100066.72;;;6.75;86.15
84049;BME280;74136;51.684;7.862;2024-03-25T08:26:26;100058.78;;;6.92;86.70
84049;BME280;74136;51.684;7.862;2024-03-25T08:28:52;100061.16;;;7.07;87.50
84049;BME280;74136;51.684;7.862;2024-03-25T08:31:18;100055.16;;;7.16;86.26
84049;BME280;74136;51.684;7.862;2024-03-25T08:33:45;100061.56;;;7.28;83.92
84049;BME280;74136;51.684;7.862;2024-03-25T08:36:11;100058.63;;;7.42;85.52
84049;BME280;74136;51.684;7.862;2024-03-25T08:38:38;100064.34;;;7.58;84.17
84049;BME280;74136;51.684;7.862;2024-03-25T08:41:04;100052.09;;;7.61;83.16
84049;BME280;74136;51.684;7.862;2024-03-25T08:43:30;100058.03;;;7.88;84.78
84049;BME280;74136;51.684;7.862;2024-03-25T08:45:56;100060.81;;;7.99;81.91
84049;BME280;74136;51.684;7.862;2024-03-25T08:48:23;100053.94;;;8.09;81.52
84049;BME280;74136;51.684;7.862;2024-03-25T08:50:49;100051.91;;;8.04;80.91
84049;BME280;74136;51.684;7.862;2024-03-25T08:53:16;100052.41;;;8.13;79.93
84049;BME280;74136;51.684;7.862;2024-03-25T08:55:45;100055.94;;;8.31;76.43
84049;BME280;74136;51.684;7.862;2024-03-25T08:58:15;100049.44;;;8.56;80.42
84049;BME280;74136;51.684;7.862;2024-03-25T09:00:42;100054.56;;;8.64;77.33
84049;BME280;74136;51.684;7.862;2024-03-25T09:03:09;100055.75;;;8.45;71.97
84049;BME280;74136;51.684;7.862;2024-03-25T09:05:36;100052.81;;;8.69;75.25
84049;BME280;74136;51.684;7.862;2024-03-25T09:08:08;100054.22;;;8.49;72.96
84049;BME280;74136;51.684;7.862;2024-03-25T09:10:37;100062.97;;;8.27;72.21
84049;BME280;74136;51.684;7.862;2024-03-25T09:13:22;100053.13;;;8.38;74.98
84049;BME280;74136;51.684;7.862;2024-03-25T09:15:51;100062.53;;;8.54;73.21
84049;BME280;74136;51.684;7.862;2024-03-25T09:18:18;100059.44;;;8.62;73.30
84049;BME280;74136;51.684;7.862;2024-03-25T09:20:44;100063.03;;;8.74;73.04
84049;BME280;74136;51.684;7.862;2024-03-25T09:23:10;100054.78;;;8.51;70.17
84049;BME280;74136;51.684;7.862;2024-03-25T09:25:36;100053.03;;;8.56;71.45
84049;BME280;74136;51.684;7.862;2024-03-25T09:28:03;100055.88;;;8.50;70.61
84049;BME280;74136;51.684;7.862;2024-03-25T09:30:29;100063.34;;;8.43;71.47
84049;BME280;74136;51.684;7.862;2024-03-25T09:32:55;100055.88;;;8.20;68.69
84049;BME280;74136;51.684;7.862;2024-03-25T09:35:23;100064.06;;;8.08;67.89
84049;BME280;74136;51.684;7.862;2024-03-25T09:37:49;100061.66;;;8.00;69.14
84049;BME280;74136;51.684;7.862;2024-03-25T09:40:15;100062.22;;;7.90;66.09
84049;BME280;74136;51.684;7.862;2024-03-25T09:42:52;100061.44;;;8.01;70.89
84049;BME280;74136;51.684;7.862;2024-03-25T09:45:24;100061.72;;;8.53;71.52
84049;BME280;74136;51.684;7.862;2024-03-25T09:47:51;100056.03;;;8.90;65.67
84049;BME280;74136;51.684;7.862;2024-03-25T09:50:17;100057.56;;;9.09;61.04
84049;BME280;74136;51.684;7.862;2024-03-25T09:52:47;100053.53;;;9.52;59.70
84049;BME280;74136;51.684;7.862;2024-03-25T09:55:13;100041.53;;;9.81;59.90
84049;BME280;74136;51.684;7.862;2024-03-25T09:57:41;100044.03;;;9.82;58.44
84049;BME280;74136;51.684;7.862;2024-03-25T10:00:08;100046.50;;;10.12;56.93
84049;BME280;74136;51.684;7.862;2024-03-25T10:02:37;100039.38;;;10.28;54.86
84049;BME280;74136;51.684;7.862;2024-03-25T10:05:05;100037.75;;;10.44;55.64
84049;BME280;74136;51.684;7.862;2024-03-25T10:07:33;100029.91;;;10.52;58.21
84049;BME280;74136;51.684;7.862;2024-03-25T10:09:59;100033.31;;;10.76;58.25
84049;BME280;74136;51.684;7.862;2024-03-25T10:12:26;100030.75;;;10.70;58.11
84049;BME280;74136;51.684;7.862;2024-03-25T10:14:52;100023.56;;;10.52;57.21
84049;BME280;74136;51.684;7.862;2024-03-25T10:17:18;100026.63;;;10.72;58.11
84049;BME280;74136;51.684;7.862;2024-03-25T10:19:44;100023.59;;;11.07;58.91
84049;BME280;74136;51.684;7.862;2024-03-25T10:22:10;100020.63;;;10.92;57.66
84049;BME280;74136;51.684;7.862;2024-03-25T10:24:44;100028.41;;;10.78;56.99
84049;BME280;74136;51.684;7.862;2024-03-25T10:27:18;100026.88;;;10.20;55.90
84049;BME280;74136;51.684;7.862;2024-03-25T10:29:46;100025.31;;;9.96;57.81
84049;BME280;74136;51.684;7.862;2024-03-25T10:32:14;100026.97;;;9.97;58.29
84049;BME280;74136;51.684;7.862;2024-03-25T10:34:41;100016.09;;;9.74;57.54
84049;BME280;74136;51.684;7.862;2024-03-25T10:37:11;100019.38;;;9.59;59.77
84049;BME280;74136;51.684;7.862;2024-03-25T10:39:39;100017.16;;;9.73;58.92
84049;BME280;74136;51.684;7.862;2024-03-25T10:42:11;100011.66;;;10.01;58.91
84049;BME280;74136;51.684;7.862;2024-03-25T10:44:39;100013.81;;;9.99;57.36
84049;BME280;74136;51.684;7.862;2024-03-25T10:47:06;100011.38;;;9.86;58.38
84049;BME280;74136;51.684;7.862;2024-03-25T10:49:40;100016.47;;;9.66;58.92
84049;BME280;74136;51.684;7.862;2024-03-25T10:52:11;100009.72;;;9.57;61.31
84049;BME280;74136;51.684;7.862;2024-03-25T10:54:39;100018.63;;;9.35;58.35
84049;BME280;74136;51.684;7.862;2024-03-25T10:57:07;100012.09;;;9.53;59.96
84049;BME280;74136;51.684;7.862;2024-03-25T10:59:33;100008.19;;;9.77;59.21
84049;BME280;74136;51.684;7.862;2024-03-25T11:02:03;99996.97;;;9.96;59.33
84049;BME280;74136;51.684;7.862;2024-03-25T11:04:30;99995.22;;;10.18;58.83
84049;BME280;74136;51.684;7.862;2024-03-25T11:07:14;99991.06;;;10.49;55.81
84049;BME280;74136;51.684;7.862;2024-03-25T11:09:41;99994.72;;;10.54;55.47
84049;BME280;74136;51.684;7.862;2024-03-25T11:12:12;99989.06;;;9.82;56.31
84049;BME280;74136;51.684;7.862;2024-03-25T11:14:39;99984.31;;;9.95;58.22
84049;BME280;74136;51.684;7.862;2024-03-25T11:17:15;99977.84;;;10.01;57.20
84049;BME280;74136;51.684;7.862;2024-03-25T11:19:42;99982.06;;;10.20;58.47
84049;BME280;74136;51.684;7.862;2024-03-25T11:22:10;99983.72;;;10.21;56.93
84049;BME280;74136;51.684;7.862;2024-03-25T11:24:36;99978.56;;;10.25;56.94
84049;BME280;74136;51.684;7.862;2024-03-25T11:27:07;99973.91;;;9.97;57.13
84049;BME280;74136;51.684;7.862;2024-03-25T11:29:34;99974.34;;;10.05;56.31
84049;BME280;74136;51.684;7.862;2024-03-25T11:32:05;99965.59;;;9.92;55.52
84049;BME280;74136;51.684;7.862;2024-03-25T11:34:32;99961.91;;;9.86;58.04
84049;BME280;74136;51.684;7.862;2024-03-25T11:36:58;99966.84;;;10.01;57.16
84049;BME280;74136;51.684;7.862;2024-03-25T11:39:24;99962.56;;;10.21;55.66
84049;BME280;74136;51.684;7.862;2024-03-25T11:41:54;99957.94;;;9.94;55.04
84049;BME280;74136;51.684;7.862;2024-03-25T11:44:21;99959.97;;;9.70;54.53
84049;BME280;74136;51.684;7.862;2024-03-25T11:46:50;99961.66;;;9.71;55.46
84049;BME280;74136;51.684;7.862;2024-03-25T11:49:16;99954.44;;;9.98;57.28
84049;BME280;74136;51.684;7.862;2024-03-25T11:51:45;99950.47;;;10.23;57.61
84049;BME280;74136;51.684;7.862;2024-03-25T11:54:13;99955.38;;;10.54;56.13
84049;BME280;74136;51.684;7.862;2024-03-25T11:56:39;99941.91;;;10.74;53.94
84049;BME280;74136;51.684;7.862;2024-03-25T11:59:06;99944.16;;;10.77;52.65
84049;BME280;74136;51.684;7.862;2024-03-25T12:01:33;99937.19;;;10.53;53.71
84049;BME280;74136;51.684;7.862;2024-03-25T12:04:17;99937.28;;;10.41;53.55
84049;BME280;74136;51.684;7.862;2024-03-25T12:06:45;99926.31;;;10.25;53.90
84049;BME280;74136;51.684;7.862;2024-03-25T12:09:11;99930.31;;;10.34;53.18
84049;BME280;74136;51.684;7.862;2024-03-25T12:11:57;99920.88;;;10.46;53.51
84049;BME280;74136;51.684;7.862;2024-03-25T12:14:24;99916.72;;;10.82;51.89
84049;BME280;74136;51.684;7.862;2024-03-25T12:16:53;99918.25;;;11.17;52.98
84049;BME280;74136;51.684;7.862;2024-03-25T12:19:20;99914.63;;;11.38;53.10
84049;BME280;74136;51.684;7.862;2024-03-25T12:21:47;99915.13;;;10.86;51.05
84049;BME280;74136;51.684;7.862;2024-03-25T12:24:14;99903.09;;;10.54;53.57
84049;BME280;74136;51.684;7.862;2024-03-25T12:26:40;99901.66;;;10.68;51.78
84049;BME280;74136;51.684;7.862;2024-03-25T12:29:06;99899.75;;;10.69;51.73
84049;BME280;74136;51.684;7.862;2024-03-25T12:31:33;99896.31;;;11.00;55.45
84049;BME280;74136;51.684;7.862;2024-03-25T12:34:00;99893.91;;;11.30;53.88
84049;BME280;74136;51.684;7.862;2024-03-25T12:36:26;99879.66;;;11.39;52.02
84049;BME280;74136;51.684;7.862;2024-03-25T12:38:57;99877.66;;;11.56;52.34
84049;BME280;74136;51.684;7.862;2024-03-25T12:41:23;99877.94;;;11.81;50.88
84049;BME280;74136;51.684;7.862;2024-03-25T12:43:50;99878.38;;;12.05;50.53
84049;BME280;74136;51.684;7.862;2024-03-25T12:46:17;99861.50;;;11.96;50.41
84049;BME280;74136;51.684;7.862;2024-03-25T12:48:44;99865.34;;;11.95;47.16
84049;BME280;74136;51.684;7.862;2024-03-25T12:51:15;99865.50;;;11.79;47.58
84049;BME280;74136;51.684;7.862;2024-03-25T12:53:41;99863.13;;;11.12;49.96
84049;BME280;74136;51.684;7.862;2024-03-25T12:56:08;99859.91;;;11.20;51.66
84049;BME280;74136;51.684;7.862;2024-03-25T12:58:34;99857.38;;;11.40;52.42
84049;BME280;74136;51.684;7.862;2024-03-25T13:01:00;99854.88;;;11.65;51.75
84049;BME280;74136;51.684;7.862;2024-03-25T13:03:27;99848.28;;;11.72;49.00
84049;BME280;74136;51.684;7.862;2024-03-25T13:05:53;99854.00;;;11.33;49.53
84049;BME280;74136;51.684;7.862;2024-03-25T13:08:20;99854.03;;;11.38;48.31